Time;durP1;ratioP1;P1;durP2;ratioP2;P2;SDS_P1;SDS_P2;PMS_P1;PMS_P2;Temp;Humidity;BMP_temperature;BMP_pressure;BME280_temperature;BME280_humidity;BME280_pressure;Samples;Min_cycle;Max_cycle;Signal;HPM_P1;HPM_P2
2022/01/04 00:02:23;;;;;;;;;;;4.60;99.90;;;;;;5131511;28;19919;-77
2022/01/04 00:04:49;;;;;;;;;;;4.60;99.90;;;;;;5132316;28;19930;-76
2022/01/04 00:07:14;;;;;;;;;;;4.60;99.90;;;;;;5131292;28;19915;-75
2022/01/04 00:09:42;;;;;;;;;;;4.60;99.90;;;;;;5132451;28;19915;-76
2022/01/04 00:14:53;;;;;;;;;;;4.60;99.90;;;;;;5132516;28;19915;-76
2022/01/04 00:17:19;;;;;;;;;;;4.50;99.90;;;;;;5131577;28;19919;-76
2022/01/04 00:19:44;;;;;;;;;;;4.50;99.90;;;;;;5132482;28;20336;-75
2022/01/04 00:22:10;;;;;;;;;;;4.60;99.90;;;;;;5132150;28;19931;-76
2022/01/04 00:24:36;;;;;;;;;;;4.60;99.90;;;;;;5132603;28;19912;-76
2022/01/04 00:27:02;;;;;;;;;;;4.50;99.90;;;;;;5132641;27;19990;-76
2022/01/04 00:29:28;;;;;;;;;;;4.50;99.90;;;;;;5131602;28;19911;-76
2022/01/04 00:31:53;;;;;;;;;;;4.50;99.90;;;;;;5113846;28;19915;-76
2022/01/04 00:34:19;;;;;;;;;;;4.40;99.90;;;;;;5131596;28;19908;-77
2022/01/04 00:36:45;;;;;;;;;;;4.40;99.90;;;;;;5132342;28;19919;-76
2022/01/04 00:39:10;;;;;;;;;;;4.40;99.90;;;;;;5131446;28;19907;-77
2022/01/04 00:41:36;;;;;;;;;;;4.40;99.90;;;;;;5132304;28;19911;-76
2022/01/04 00:44:01;;;;;;;;;;;4.40;99.90;;;;;;5131995;28;19915;-76
2022/01/04 00:46:27;;;;;;;;;;;4.40;99.90;;;;;;5130929;28;20364;-76
2022/01/04 00:49:11;;;;;;;;;;;4.40;99.90;;;;;;5132038;28;19930;-76
2022/01/04 00:51:38;;;;;;;;;;;4.30;99.90;;;;;;5131969;28;20360;-76
2022/01/04 00:54:04;;;;;;;;;;;4.30;99.90;;;;;;5131921;28;19951;-76
2022/01/04 00:56:29;;;;;;;;;;;4.30;99.90;;;;;;5131413;27;20411;-77
2022/01/04 00:58:55;;;;;;;;;;;4.20;99.90;;;;;;5135674;27;19914;-76
2022/01/04 01:01:21;;;;;;;;;;;4.30;99.90;;;;;;5134834;27;19919;-76
2022/01/04 01:03:46;;;;;;;;;;;4.20;99.90;;;;;;5147976;27;19911;-75
2022/01/04 01:06:12;;;;;;;;;;;4.20;99.90;;;;;;5150039;27;19911;-77
2022/01/04 01:08:38;;;;;;;;;;;4.20;99.90;;;;;;5135495;27;19907;-76
2022/01/04 01:11:05;;;;;;;;;;;4.10;99.90;;;;;;5135982;27;20002;-76
2022/01/04 01:13:30;;;;;;;;;;;4.10;99.90;;;;;;5135266;27;19911;-76
2022/01/04 01:15:56;;;;;;;;;;;4.00;99.90;;;;;;5135936;27;20006;-76
2022/01/04 01:18:22;;;;;;;;;;;4.00;99.90;;;;;;5152961;27;19945;-76
2022/01/04 01:20:49;;;;;;;;;;;4.00;99.90;;;;;;5156107;27;19907;-75
2022/01/04 01:23:15;;;;;;;;;;;4.00;99.90;;;;;;5155370;27;20256;-76
2022/01/04 01:25:41;;;;;;;;;;;4.00;99.90;;;;;;5155671;27;19914;-75
2022/01/04 01:28:06;;;;;;;;;;;4.00;99.90;;;;;;5156533;27;19915;-75
2022/01/04 01:30:35;;;;;;;;;;;4.00;99.90;;;;;;5137357;27;19910;-75
2022/01/04 01:33:01;;;;;;;;;;;4.00;99.90;;;;;;5156592;27;19908;-75
2022/01/04 01:35:26;;;;;;;;;;;4.00;99.90;;;;;;5156146;27;19914;-76
2022/01/04 01:37:52;;;;;;;;;;;4.00;99.90;;;;;;5156335;27;19919;-75
2022/01/04 01:40:18;;;;;;;;;;;3.90;99.90;;;;;;5155854;27;19907;-76
2022/01/04 01:42:43;;;;;;;;;;;3.90;99.90;;;;;;5156287;27;19907;-76
2022/01/04 01:45:11;;;;;;;;;;;3.90;99.90;;;;;;5156337;27;20005;-75
2022/01/04 01:47:39;;;;;;;;;;;3.90;99.90;;;;;;5155310;27;19911;-75
2022/01/04 01:50:05;;;;;;;;;;;3.80;99.90;;;;;;5156305;27;19915;-75
2022/01/04 01:52:31;;;;;;;;;;;3.80;99.90;;;;;;5155197;27;19907;-76
2022/01/04 01:54:57;;;;;;;;;;;3.80;99.90;;;;;;5156239;27;19908;-75
2022/01/04 01:57:24;;;;;;;;;;;3.80;99.90;;;;;;5155447;27;19919;-76
2022/01/04 01:59:49;;;;;;;;;;;3.70;99.90;;;;;;5156099;27;19914;-76
2022/01/04 02:02:17;;;;;;;;;;;3.70;99.90;;;;;;5154250;27;20122;-77
2022/01/04 02:04:43;;;;;;;;;;;3.70;99.90;;;;;;5155707;27;19911;-75
2022/01/04 02:07:09;;;;;;;;;;;3.70;99.90;;;;;;5155911;27;20294;-75
2022/01/04 02:09:38;;;;;;;;;;;3.70;99.90;;;;;;5155094;27;20371;-75
2022/01/04 02:12:05;;;;;;;;;;;3.70;99.90;;;;;;5155914;27;20262;-75
2022/01/04 02:14:30;;;;;;;;;;;3.70;99.90;;;;;;5154731;27;20390;-75
2022/01/04 02:16:56;;;;;;;;;;;3.70;99.90;;;;;;5155941;27;19962;-75
2022/01/04 02:19:22;;;;;;;;;;;3.60;99.90;;;;;;5154567;27;19911;-75
2022/01/04 02:21:47;;;;;;;;;;;3.70;99.90;;;;;;5137157;27;19995;-74
2022/01/04 02:24:13;;;;;;;;;;;3.70;99.90;;;;;;5155551;27;19907;-74
2022/01/04 02:26:39;;;;;;;;;;;3.70;99.90;;;;;;5154772;27;19955;-74
2022/01/04 02:29:07;;;;;;;;;;;3.60;99.90;;;;;;5155330;27;19907;-75
2022/01/04 02:31:32;;;;;;;;;;;3.70;99.90;;;;;;5154691;27;19941;-75
2022/01/04 02:33:58;;;;;;;;;;;3.60;99.90;;;;;;5155055;27;19951;-75
2022/01/04 02:36:23;;;;;;;;;;;3.60;99.90;;;;;;5136157;27;19993;-76
2022/01/04 02:38:52;;;;;;;;;;;3.70;99.90;;;;;;5155031;27;19916;-75
2022/01/04 02:41:18;;;;;;;;;;;3.60;99.90;;;;;;5155084;27;19908;-77
2022/01/04 02:43:43;;;;;;;;;;;3.60;99.90;;;;;;5154977;27;19907;-76
2022/01/04 02:46:09;;;;;;;;;;;3.60;99.90;;;;;;5155057;27;19908;-75
2022/01/04 02:48:44;;;;;;;;;;;3.50;99.90;;;;;;5154201;27;19913;-75
2022/01/04 02:51:11;;;;;;;;;;;3.50;99.90;;;;;;5155116;27;19907;-75
2022/01/04 02:53:36;;;;;;;;;;;3.50;99.90;;;;;;5154320;27;19907;-75
2022/01/04 02:56:02;;;;;;;;;;;3.50;99.90;;;;;;5136565;27;20420;-75
2022/01/04 02:58:28;;;;;;;;;;;3.50;99.90;;;;;;5154152;27;19923;-76
2022/01/04 03:00:53;;;;;;;;;;;3.50;99.90;;;;;;5154902;27;19941;-74
2022/01/04 03:03:19;;;;;;;;;;;3.50;99.90;;;;;;5155041;27;19911;-75
2022/01/04 03:05:45;;;;;;;;;;;3.40;99.90;;;;;;5154513;27;19939;-75
2022/01/04 03:08:10;;;;;;;;;;;3.40;99.90;;;;;;5154805;27;20006;-75
2022/01/04 03:10:36;;;;;;;;;;;3.40;99.90;;;;;;5154021;27;19911;-74
2022/01/04 03:13:04;;;;;;;;;;;3.40;99.90;;;;;;5154539;27;19950;-75
2022/01/04 03:15:30;;;;;;;;;;;3.40;99.90;;;;;;5153504;27;20307;-75
2022/01/04 03:17:55;;;;;;;;;;;3.40;99.90;;;;;;5154853;27;19915;-75
2022/01/04 03:20:21;;;;;;;;;;;3.40;99.90;;;;;;5153668;27;19915;-75
2022/01/04 03:22:46;;;;;;;;;;;3.30;99.90;;;;;;5153905;27;19907;-75
2022/01/04 03:25:12;;;;;;;;;;;3.30;99.90;;;;;;5154512;27;19917;-75
2022/01/04 03:27:38;;;;;;;;;;;3.30;99.90;;;;;;5153782;27;20036;-75
2022/01/04 03:30:04;;;;;;;;;;;3.30;99.90;;;;;;5154469;27;19907;-75
2022/01/04 03:32:30;;;;;;;;;;;3.20;99.90;;;;;;5153653;27;19914;-75
2022/01/04 03:34:56;;;;;;;;;;;3.20;99.90;;;;;;5154268;27;19911;-75
2022/01/04 03:37:21;;;;;;;;;;;3.20;99.90;;;;;;5153343;27;20006;-76
2022/01/04 03:39:47;;;;;;;;;;;3.20;99.90;;;;;;5154969;27;20356;-75
2022/01/04 03:42:13;;;;;;;;;;;3.20;99.90;;;;;;5172433;27;19895;-76
2022/01/04 03:44:38;;;;;;;;;;;3.20;99.90;;;;;;5168435;27;19919;-76
2022/01/04 03:47:04;;;;;;;;;;;3.20;99.90;;;;;;5154718;27;19914;-76
2022/01/04 03:49:30;;;;;;;;;;;3.20;99.90;;;;;;5152784;27;19976;-76
2022/01/04 03:51:55;;;;;;;;;;;3.10;99.90;;;;;;5154050;27;19914;-75
2022/01/04 03:54:22;;;;;;;;;;;3.10;99.90;;;;;;5154174;27;19907;-76
2022/01/04 03:56:48;;;;;;;;;;;3.00;99.90;;;;;;5153543;27;19991;-75
2022/01/04 03:59:14;;;;;;;;;;;3.00;99.90;;;;;;5154127;27;20347;-74
2022/01/04 04:01:40;;;;;;;;;;;3.00;99.90;;;;;;5152886;27;19919;-75
2022/01/04 04:04:06;;;;;;;;;;;2.90;99.90;;;;;;5135601;27;20393;-75
2022/01/04 04:06:31;;;;;;;;;;;2.90;99.90;;;;;;5134806;27;19960;-75
2022/01/04 04:08:57;;;;;;;;;;;2.80;99.90;;;;;;5154074;27;19952;-75
2022/01/04 04:11:26;;;;;;;;;;;2.90;99.90;;;;;;5153964;27;19918;-75
2022/01/04 04:13:52;;;;;;;;;;;2.80;99.90;;;;;;5154239;27;19911;-75
2022/01/04 04:16:18;;;;;;;;;;;2.80;99.90;;;;;;5154076;27;19914;-75
2022/01/04 04:18:44;;;;;;;;;;;2.80;99.90;;;;;;5152787;27;20186;-75
2022/01/04 04:21:10;;;;;;;;;;;2.80;99.90;;;;;;5153532;27;19915;-75
2022/01/04 04:23:36;;;;;;;;;;;2.80;99.90;;;;;;5153116;27;20002;-76
2022/01/04 04:26:02;;;;;;;;;;;2.70;99.90;;;;;;5153840;27;19968;-75
2022/01/04 04:28:27;;;;;;;;;;;2.80;99.90;;;;;;5153231;27;19954;-76
2022/01/04 04:30:53;;;;;;;;;;;2.70;99.90;;;;;;5153650;27;19914;-76
2022/01/04 04:33:18;;;;;;;;;;;2.70;99.90;;;;;;5156795;27;19907;-75
2022/01/04 04:35:44;;;;;;;;;;;2.70;99.90;;;;;;5157023;27;19995;-75
2022/01/04 04:38:09;;;;;;;;;;;2.80;99.90;;;;;;5157807;27;19915;-75
2022/01/04 04:40:35;;;;;;;;;;;2.80;99.90;;;;;;5156739;27;20373;-75
2022/01/04 04:43:01;;;;;;;;;;;2.70;99.90;;;;;;5157628;27;19907;-74
2022/01/04 04:45:26;;;;;;;;;;;2.70;99.90;;;;;;5157327;27;20470;-74
2022/01/04 04:47:52;;;;;;;;;;;2.70;99.90;;;;;;5156877;27;19912;-74
2022/01/04 04:50:17;;;;;;;;;;;2.70;99.90;;;;;;5157387;27;19907;-75
2022/01/04 04:52:43;;;;;;;;;;;2.60;99.90;;;;;;5156673;27;19907;-73
2022/01/04 04:55:09;;;;;;;;;;;2.60;99.90;;;;;;5157470;27;19950;-74
2022/01/04 04:57:35;;;;;;;;;;;2.50;99.90;;;;;;5156247;27;19955;-74
2022/01/04 05:00:00;;;;;;;;;;;2.50;99.90;;;;;;5157227;27;20006;-74
2022/01/04 05:02:26;;;;;;;;;;;2.40;99.90;;;;;;5156656;27;19926;-75
2022/01/04 05:04:51;;;;;;;;;;;2.40;99.90;;;;;;5156649;27;20422;-75
2022/01/04 05:07:17;;;;;;;;;;;2.30;99.90;;;;;;5157322;27;19913;-75
2022/01/04 05:09:42;;;;;;;;;;;2.30;99.90;;;;;;5156102;27;19948;-75
2022/01/04 05:12:08;;;;;;;;;;;2.30;99.90;;;;;;5156428;27;20253;-75
2022/01/04 05:14:36;;;;;;;;;;;2.30;99.90;;;;;;5155722;27;19914;-75
2022/01/04 05:17:02;;;;;;;;;;;2.20;99.90;;;;;;5156904;27;19915;-75
2022/01/04 05:19:27;;;;;;;;;;;2.20;99.90;;;;;;5156377;27;20267;-74
2022/01/04 05:21:53;;;;;;;;;;;2.30;99.90;;;;;;5156342;27;19907;-75
2022/01/04 05:24:18;;;;;;;;;;;2.30;99.90;;;;;;5157315;27;19907;-74
2022/01/04 05:26:44;;;;;;;;;;;2.20;99.90;;;;;;5156034;27;19968;-74
2022/01/04 05:29:10;;;;;;;;;;;2.20;99.90;;;;;;5156859;27;19907;-74
2022/01/04 05:31:35;;;;;;;;;;;2.20;99.90;;;;;;5155875;27;19907;-75
2022/01/04 05:34:01;;;;;;;;;;;2.20;99.90;;;;;;5156657;27;20002;-74
2022/01/04 05:36:27;;;;;;;;;;;2.20;99.90;;;;;;5156486;27;19914;-74
2022/01/04 05:38:52;;;;;;;;;;;2.20;99.90;;;;;;5155636;27;19919;-75
2022/01/04 05:41:18;;;;;;;;;;;2.20;99.90;;;;;;5156244;27;19908;-75
2022/01/04 05:43:43;;;;;;;;;;;2.20;99.90;;;;;;5155190;27;19944;-75
2022/01/04 05:46:09;;;;;;;;;;;2.20;99.90;;;;;;5156448;27;19946;-75
2022/01/04 05:48:34;;;;;;;;;;;2.20;99.90;;;;;;5155239;27;20363;-76
2022/01/04 05:51:00;;;;;;;;;;;2.20;99.90;;;;;;5155775;27;19994;-75
2022/01/04 05:53:25;;;;;;;;;;;2.20;99.90;;;;;;5156141;27;20296;-75
2022/01/04 05:55:51;;;;;;;;;;;2.20;99.90;;;;;;5155257;27;20053;-74
2022/01/04 05:58:17;;;;;;;;;;;2.20;99.90;;;;;;5156038;27;19967;-74
2022/01/04 06:00:42;;;;;;;;;;;2.20;99.90;;;;;;5155110;27;19919;-74
2022/01/04 06:03:08;;;;;;;;;;;2.20;99.90;;;;;;5156095;27;19911;-74
2022/01/04 06:05:33;;;;;;;;;;;2.30;99.90;;;;;;5168110;27;20352;-74
2022/01/04 06:07:59;;;;;;;;;;;2.30;99.90;;;;;;5172928;27;19907;-74
2022/01/04 06:10:25;;;;;;;;;;;2.30;99.90;;;;;;5156410;27;19908;-74
2022/01/04 06:15:16;;;;;;;;;;;2.30;99.90;;;;;;5155974;27;19958;-74
2022/01/04 06:17:43;;;;;;;;;;;2.40;99.90;;;;;;5154859;27;19925;-75
2022/01/04 06:20:10;;;;;;;;;;;2.40;99.90;;;;;;5155429;27;20377;-75
2022/01/04 06:22:38;;;;;;;;;;;2.40;99.90;;;;;;5154858;27;19907;-75
2022/01/04 06:25:05;;;;;;;;;;;2.40;99.90;;;;;;5155648;27;19916;-75
2022/01/04 06:27:30;;;;;;;;;;;2.40;99.90;;;;;;5155407;27;19907;-74
2022/01/04 06:29:56;;;;;;;;;;;2.40;99.90;;;;;;5154415;27;19976;-75
2022/01/04 06:32:23;;;;;;;;;;;2.40;99.90;;;;;;5155830;27;19911;-75
2022/01/04 06:34:48;;;;;;;;;;;2.30;99.90;;;;;;5154503;27;19954;-75
2022/01/04 06:37:15;;;;;;;;;;;2.30;99.90;;;;;;5155264;27;19963;-74
2022/01/04 06:39:41;;;;;;;;;;;2.30;99.90;;;;;;5154530;27;19975;-75
2022/01/04 06:42:06;;;;;;;;;;;2.30;99.90;;;;;;5155269;27;19907;-75
2022/01/04 06:44:32;;;;;;;;;;;2.40;99.90;;;;;;5136629;27;19965;-74
2022/01/04 06:46:58;;;;;;;;;;;2.30;99.90;;;;;;5154211;27;19979;-75
2022/01/04 06:49:23;;;;;;;;;;;2.40;99.90;;;;;;5154968;27;19907;-75
2022/01/04 06:51:49;;;;;;;;;;;2.40;99.90;;;;;;5154220;27;19914;-74
2022/01/04 06:54:16;;;;;;;;;;;2.40;99.90;;;;;;5154450;27;20007;-74
2022/01/04 06:56:42;;;;;;;;;;;2.40;99.90;;;;;;5153780;27;19911;-75
2022/01/04 06:59:07;;;;;;;;;;;2.50;99.90;;;;;;5155040;27;19959;-75
2022/01/04 07:01:34;;;;;;;;;;;2.50;99.90;;;;;;5154526;27;20394;-75
2022/01/04 07:03:59;;;;;;;;;;;2.50;99.90;;;;;;5154049;27;19915;-74
2022/01/04 07:06:25;;;;;;;;;;;2.40;99.90;;;;;;5155085;27;19907;-74
2022/01/04 07:08:50;;;;;;;;;;;2.40;99.90;;;;;;5153991;27;19960;-74
2022/01/04 07:11:16;;;;;;;;;;;2.30;99.90;;;;;;5154690;27;19985;-74
2022/01/04 07:13:42;;;;;;;;;;;2.30;99.90;;;;;;5153786;27;19907;-73
2022/01/04 07:16:07;;;;;;;;;;;2.20;99.90;;;;;;5154653;27;20014;-74
2022/01/04 07:18:33;;;;;;;;;;;2.20;99.90;;;;;;5154435;27;19922;-73
2022/01/04 07:20:59;;;;;;;;;;;2.20;99.90;;;;;;5153766;27;19903;-73
2022/01/04 07:23:24;;;;;;;;;;;2.10;99.90;;;;;;5154004;27;20256;-74
2022/01/04 07:25:51;;;;;;;;;;;2.20;99.90;;;;;;5154784;27;19961;-74
2022/01/04 07:28:17;;;;;;;;;;;2.20;99.90;;;;;;5136073;27;20309;-74
2022/01/04 07:30:43;;;;;;;;;;;2.10;99.90;;;;;;5153642;27;19911;-75
2022/01/04 07:33:08;;;;;;;;;;;2.10;99.90;;;;;;5154283;27;20010;-75
2022/01/04 07:35:34;;;;;;;;;;;2.10;99.90;;;;;;5154349;27;19946;-75
2022/01/04 07:37:59;;;;;;;;;;;2.10;99.90;;;;;;5153209;27;19911;-75
2022/01/04 07:40:25;;;;;;;;;;;2.10;99.90;;;;;;5135858;27;19907;-75
2022/01/04 07:42:51;;;;;;;;;;;2.10;99.90;;;;;;5134845;27;19907;-76
2022/01/04 07:45:16;;;;;;;;;;;2.00;99.90;;;;;;5154219;27;20347;-75
2022/01/04 07:47:42;;;;;;;;;;;2.00;99.90;;;;;;5153312;27;19911;-76
2022/01/04 07:50:09;;;;;;;;;;;2.00;99.90;;;;;;5154378;27;19907;-75
2022/01/04 07:52:35;;;;;;;;;;;2.00;99.90;;;;;;5154084;27;20011;-75
2022/01/04 07:55:01;;;;;;;;;;;2.00;99.90;;;;;;5143948;27;20078;-75
2022/01/04 07:57:27;;;;;;;;;;;2.00;99.90;;;;;;5141644;27;20280;-75
2022/01/04 07:59:52;;;;;;;;;;;2.00;99.90;;;;;;5134335;27;20045;-75
2022/01/04 08:02:18;;;;;;;;;;;2.00;99.90;;;;;;5132567;27;19920;-74
2022/01/04 08:04:43;;;;;;;;;;;2.00;99.90;;;;;;5132805;28;19915;-75
2022/01/04 08:07:09;;;;;;;;;;;2.00;99.90;;;;;;5120051;27;19995;-75
2022/01/04 08:09:35;;;;;;;;;;;2.00;99.90;;;;;;5145260;27;19919;-75
2022/01/04 08:12:00;;;;;;;;;;;2.10;99.90;;;;;;5146609;27;19907;-75
2022/01/04 08:14:26;;;;;;;;;;;2.10;99.90;;;;;;5128826;27;19990;-75
2022/01/04 08:16:53;;;;;;;;;;;2.10;99.90;;;;;;5144866;27;20018;-76
2022/01/04 08:19:18;;;;;;;;;;;2.10;99.90;;;;;;5149054;27;20389;-75
2022/01/04 08:21:44;;;;;;;;;;;2.00;99.90;;;;;;5157334;27;19907;-76
2022/01/04 08:24:09;;;;;;;;;;;2.00;99.90;;;;;;5158010;27;20280;-75
2022/01/04 08:26:36;;;;;;;;;;;2.00;99.90;;;;;;5158222;27;19914;-75
2022/01/04 08:29:02;;;;;;;;;;;2.00;99.90;;;;;;5157034;27;19949;-76
2022/01/04 08:31:27;;;;;;;;;;;2.00;99.90;;;;;;5157834;27;19934;-76
2022/01/04 08:33:53;;;;;;;;;;;2.00;99.90;;;;;;5138475;27;20359;-76
2022/01/04 08:36:20;;;;;;;;;;;1.90;99.90;;;;;;5158073;27;19931;-76
2022/01/04 08:38:45;;;;;;;;;;;1.90;99.90;;;;;;5156748;27;20340;-76
2022/01/04 08:41:11;;;;;;;;;;;1.90;99.90;;;;;;5157900;27;19961;-76
2022/01/04 08:43:36;;;;;;;;;;;1.90;99.90;;;;;;5141492;27;19907;-77
2022/01/04 08:46:02;;;;;;;;;;;1.90;99.90;;;;;;5153692;27;20039;-77
2022/01/04 08:48:28;;;;;;;;;;;1.90;99.90;;;;;;5156930;27;20356;-76
2022/01/04 08:50:53;;;;;;;;;;;2.00;99.90;;;;;;5149974;27;20344;-76
2022/01/04 08:53:19;;;;;;;;;;;2.00;99.90;;;;;;5145828;27;20305;-74
2022/01/04 08:55:47;;;;;;;;;;;2.00;99.90;;;;;;5152515;27;19913;-75
2022/01/04 08:58:13;;;;;;;;;;;2.00;99.90;;;;;;5147964;27;20012;-75
2022/01/04 09:00:38;;;;;;;;;;;2.00;99.90;;;;;;5150868;27;20342;-75
2022/01/04 09:03:04;;;;;;;;;;;2.00;99.90;;;;;;5145400;27;20540;-76
2022/01/04 09:05:30;;;;;;;;;;;2.00;99.90;;;;;;5140424;27;19999;-76
2022/01/04 09:07:55;;;;;;;;;;;2.10;99.90;;;;;;5148771;27;19956;-75
2022/01/04 09:10:21;;;;;;;;;;;2.10;99.90;;;;;;5146149;27;19918;-75
2022/01/04 09:20:42;;;;;;;;;;;2.20;99.90;;;;;;5159909;27;19914;-75
2022/01/04 09:23:08;;;;;;;;;;;2.10;99.90;;;;;;5167934;27;20326;-75
2022/01/04 09:25:34;;;;;;;;;;;2.10;99.90;;;;;;5166792;27;19907;-76
2022/01/04 09:28:00;;;;;;;;;;;2.20;99.90;;;;;;5167094;27;19907;-75
2022/01/04 09:30:26;;;;;;;;;;;2.20;99.90;;;;;;5155692;27;19907;-76
2022/01/04 09:32:52;;;;;;;;;;;2.20;99.90;;;;;;5154975;27;19907;-75
2022/01/04 09:35:18;;;;;;;;;;;2.30;99.90;;;;;;5149418;27;20257;-76
2022/01/04 09:37:43;;;;;;;;;;;2.30;99.90;;;;;;5152489;27;19926;-76
2022/01/04 09:40:09;;;;;;;;;;;2.30;99.90;;;;;;5148767;27;19995;-76
2022/01/04 09:42:35;;;;;;;;;;;2.30;99.90;;;;;;5139320;27;19911;-76
2022/01/04 09:45:01;;;;;;;;;;;2.30;99.90;;;;;;5134000;27;19907;-75
2022/01/04 09:47:29;;;;;;;;;;;2.30;99.90;;;;;;5134829;27;19961;-75
2022/01/04 09:49:55;;;;;;;;;;;2.30;99.90;;;;;;5133359;27;19911;-76
2022/01/04 09:52:21;;;;;;;;;;;2.40;99.90;;;;;;5135038;27;20344;-76
2022/01/04 09:54:49;;;;;;;;;;;2.40;99.90;;;;;;5120371;27;19919;-76
2022/01/04 09:57:15;;;;;;;;;;;2.30;99.90;;;;;;5135151;27;19962;-76
2022/01/04 09:59:41;;;;;;;;;;;2.30;99.90;;;;;;5135141;27;19908;-76
2022/01/04 10:02:13;;;;;;;;;;;2.30;99.90;;;;;;5133667;27;19931;-76
2022/01/04 10:04:38;;;;;;;;;;;2.40;99.90;;;;;;5134755;27;19907;-75
2022/01/04 10:07:05;;;;;;;;;;;2.30;99.90;;;;;;5133820;27;19904;-76
2022/01/04 10:09:38;;;;;;;;;;;2.30;99.90;;;;;;5134833;27;19960;-75
2022/01/04 10:12:05;;;;;;;;;;;2.40;99.90;;;;;;5138472;27;19911;-76
2022/01/04 10:14:33;;;;;;;;;;;2.40;99.90;;;;;;5146195;27;19966;-76
2022/01/04 10:17:00;;;;;;;;;;;2.40;99.90;;;;;;5142798;27;19919;-76
2022/01/04 10:19:46;;;;;;;;;;;2.40;99.90;;;;;;5151603;27;19930;-76
2022/01/04 10:22:26;;;;;;;;;;;2.50;99.90;;;;;;5154098;27;19911;-76
2022/01/04 10:25:01;;;;;;;;;;;2.50;99.90;;;;;;5154518;27;20116;-76
2022/01/04 10:27:31;;;;;;;;;;;2.50;99.90;;;;;;5151400;27;19912;-76
2022/01/04 10:30:08;;;;;;;;;;;2.60;99.90;;;;;;5142569;27;20436;-76
2022/01/04 10:32:46;;;;;;;;;;;2.60;99.90;;;;;;5143433;27;19908;-76
2022/01/04 10:35:19;;;;;;;;;;;2.70;99.90;;;;;;5142495;27;19916;-76
2022/01/04 10:37:45;;;;;;;;;;;2.70;99.90;;;;;;5139442;27;19919;-75
2022/01/04 10:40:10;;;;;;;;;;;2.80;99.90;;;;;;5139678;27;21138;-76
2022/01/04 10:42:36;;;;;;;;;;;2.90;99.90;;;;;;5140279;27;19908;-76
2022/01/04 10:45:19;;;;;;;;;;;2.90;99.90;;;;;;5142724;27;19962;-76
2022/01/04 10:47:45;;;;;;;;;;;2.90;99.90;;;;;;5144650;27;20261;-76
2022/01/04 10:50:10;;;;;;;;;;;2.90;99.90;;;;;;5143063;27;19948;-76
2022/01/04 10:52:36;;;;;;;;;;;2.90;99.90;;;;;;5141998;27;19919;-76
2022/01/04 10:55:11;;;;;;;;;;;3.00;99.90;;;;;;5130948;27;19934;-76
2022/01/04 10:57:37;;;;;;;;;;;2.90;99.90;;;;;;5132378;27;20033;-76
2022/01/04 11:00:17;;;;;;;;;;;2.90;99.90;;;;;;5143859;27;19998;-76
2022/01/04 11:02:42;;;;;;;;;;;2.80;99.90;;;;;;5141418;27;19994;-76
2022/01/04 11:05:26;;;;;;;;;;;2.80;99.90;;;;;;5137075;27;20415;-76
2022/01/04 11:07:59;;;;;;;;;;;2.80;99.90;;;;;;5130865;27;19914;-76
2022/01/04 11:10:25;;;;;;;;;;;2.90;99.90;;;;;;5139285;27;19907;-76
2022/01/04 11:12:52;;;;;;;;;;;2.90;99.90;;;;;;5153478;27;19908;-76
2022/01/04 11:15:17;;;;;;;;;;;2.80;99.90;;;;;;5154427;27;19908;-76
2022/01/04 11:17:43;;;;;;;;;;;2.80;99.90;;;;;;5154391;27;20272;-76
2022/01/04 11:20:09;;;;;;;;;;;2.80;99.90;;;;;;5153580;27;19903;-76
2022/01/04 11:22:35;;;;;;;;;;;2.80;99.90;;;;;;5116923;27;19956;-75
2022/01/04 11:25:01;;;;;;;;;;;2.90;99.90;;;;;;5144826;27;19976;-75
2022/01/04 11:27:28;;;;;;;;;;;2.90;99.90;;;;;;5125582;27;19918;-75
2022/01/04 11:29:58;;;;;;;;;;;2.90;99.90;;;;;;5142140;27;19919;-76
2022/01/04 11:32:25;;;;;;;;;;;3.00;99.90;;;;;;5141788;27;19912;-76
2022/01/04 11:34:56;;;;;;;;;;;3.00;99.90;;;;;;5144076;27;19930;-76
2022/01/04 11:37:22;;;;;;;;;;;3.10;99.90;;;;;;5153617;27;20275;-76
2022/01/04 11:39:50;;;;;;;;;;;3.10;99.90;;;;;;5150356;27;20409;-76
2022/01/04 11:42:48;;;;;;;;;;;3.20;99.90;;;;;;5121583;27;19911;-76
2022/01/04 11:45:14;;;;;;;;;;;3.20;99.90;;;;;;5079818;27;20360;-77
2022/01/04 11:47:45;;;;;;;;;;;3.30;99.90;;;;;;5141668;27;19912;-76
2022/01/04 11:50:13;;;;;;;;;;;3.30;99.90;;;;;;5140587;27;19907;-76
2022/01/04 11:52:43;;;;;;;;;;;3.40;99.90;;;;;;5122460;27;19918;-75
2022/01/04 11:55:29;;;;;;;;;;;3.40;99.90;;;;;;5148488;27;20052;-76
2022/01/04 11:57:57;;;;;;;;;;;3.40;99.90;;;;;;5152825;27;19915;-77
2022/01/04 12:00:30;;;;;;;;;;;3.50;99.90;;;;;;5146659;27;20438;-76
2022/01/04 12:03:05;;;;;;;;;;;3.50;99.90;;;;;;5142127;27;19919;-76
2022/01/04 12:05:31;;;;;;;;;;;3.60;99.90;;;;;;5135408;27;19952;-74
2022/01/04 12:08:00;;;;;;;;;;;3.60;99.90;;;;;;5131872;28;19908;-76
2022/01/04 12:10:26;;;;;;;;;;;3.60;99.90;;;;;;5132659;28;19918;-76
2022/01/04 12:12:54;;;;;;;;;;;3.70;99.90;;;;;;5132709;28;19908;-76
2022/01/04 12:15:35;;;;;;;;;;;3.70;99.90;;;;;;5133127;28;19961;-76
2022/01/04 12:18:01;;;;;;;;;;;3.70;99.90;;;;;;5132166;28;20337;-75
2022/01/04 12:20:42;;;;;;;;;;;3.80;99.90;;;;;;5114921;28;19908;-76
2022/01/04 12:23:24;;;;;;;;;;;3.80;99.90;;;;;;5113730;28;19931;-76
2022/01/04 12:26:02;;;;;;;;;;;3.90;99.90;;;;;;5132935;28;19914;-76
2022/01/04 12:28:28;;;;;;;;;;;3.90;99.90;;;;;;5133127;28;19907;-76
2022/01/04 12:31:12;;;;;;;;;;;3.90;99.90;;;;;;5131625;28;19912;-77
2022/01/04 12:33:38;;;;;;;;;;;4.00;99.90;;;;;;5132618;28;19908;-76
2022/01/04 12:36:04;;;;;;;;;;;4.00;99.90;;;;;;5131959;28;20382;-76
2022/01/04 12:38:30;;;;;;;;;;;4.10;99.90;;;;;;5132715;28;20006;-76
2022/01/04 12:40:56;;;;;;;;;;;4.10;99.90;;;;;;5131868;28;19908;-77
2022/01/04 12:43:22;;;;;;;;;;;4.10;99.90;;;;;;5132689;28;19907;-76
2022/01/04 12:45:56;;;;;;;;;;;4.20;99.90;;;;;;5132569;28;19915;-76
2022/01/04 12:48:41;;;;;;;;;;;4.20;99.90;;;;;;5132688;28;20383;-76
2022/01/04 12:51:25;;;;;;;;;;;4.20;99.90;;;;;;5131816;28;19907;-75
2022/01/04 12:53:51;;;;;;;;;;;4.20;99.90;;;;;;5134896;27;20444;-77
2022/01/04 12:56:17;;;;;;;;;;;4.20;99.90;;;;;;5135534;27;19934;-76
2022/01/04 12:58:43;;;;;;;;;;;4.20;99.90;;;;;;5136365;27;20396;-77
2022/01/04 13:01:08;;;;;;;;;;;4.20;99.90;;;;;;5134946;27;19918;-75
2022/01/04 13:03:34;;;;;;;;;;;4.20;99.90;;;;;;5141967;27;19911;-76
2022/01/04 13:06:00;;;;;;;;;;;4.20;99.90;;;;;;5151741;27;19918;-76
2022/01/04 13:08:26;;;;;;;;;;;4.20;99.90;;;;;;5147310;27;19907;-76
2022/01/04 13:11:02;;;;;;;;;;;4.30;99.90;;;;;;5144264;27;19915;-76
2022/01/04 13:13:30;;;;;;;;;;;4.30;99.90;;;;;;5135458;27;19907;-77
2022/01/04 13:16:14;;;;;;;;;;;4.30;99.90;;;;;;5135290;27;19908;-77
2022/01/04 13:18:39;;;;;;;;;;;4.30;99.90;;;;;;5135861;27;20051;-77
2022/01/04 13:21:06;;;;;;;;;;;4.30;99.90;;;;;;5145637;27;20003;-75
2022/01/04 13:23:36;;;;;;;;;;;4.30;99.90;;;;;;5125270;27;19907;-75
2022/01/04 13:26:05;;;;;;;;;;;4.40;99.90;;;;;;5152565;27;19959;-76
2022/01/04 13:28:30;;;;;;;;;;;4.40;99.90;;;;;;5156207;27;19914;-76
2022/01/04 13:30:56;;;;;;;;;;;4.40;99.90;;;;;;5155764;27;20001;-77
2022/01/04 13:33:23;;;;;;;;;;;4.40;99.90;;;;;;5156081;27;19929;-76
2022/01/04 13:35:49;;;;;;;;;;;4.50;99.90;;;;;;5144148;27;19907;-76
2022/01/04 13:38:21;;;;;;;;;;;4.50;99.90;;;;;;5142708;27;19915;-76
2022/01/04 13:40:47;;;;;;;;;;;4.60;99.90;;;;;;5145653;27;19919;-76
2022/01/04 13:43:14;;;;;;;;;;;4.60;99.90;;;;;;5144850;27;20375;-77
2022/01/04 13:45:45;;;;;;;;;;;4.60;99.90;;;;;;5143912;27;19914;-77
2022/01/04 13:48:12;;;;;;;;;;;4.60;99.90;;;;;;5141252;27;19907;-76
2022/01/04 13:50:40;;;;;;;;;;;4.60;99.90;;;;;;5144722;27;20031;-77
2022/01/04 13:53:12;;;;;;;;;;;4.50;99.90;;;;;;5152128;27;19907;-78
2022/01/04 13:55:58;;;;;;;;;;;4.60;99.90;;;;;;5144634;27;19998;-77
2022/01/04 13:58:33;;;;;;;;;;;4.60;99.90;;;;;;5156273;27;19915;-77
2022/01/04 14:01:09;;;;;;;;;;;4.60;99.90;;;;;;5154202;27;19913;-76
2022/01/04 14:03:35;;;;;;;;;;;4.50;99.90;;;;;;5144051;27;20376;-76
2022/01/04 14:06:00;;;;;;;;;;;4.50;99.90;;;;;;5154841;27;19998;-77
2022/01/04 14:08:44;;;;;;;;;;;4.50;99.90;;;;;;5155749;27;19915;-76
2022/01/04 14:11:10;;;;;;;;;;;4.50;99.90;;;;;;5154262;27;19907;-76
2022/01/04 14:13:36;;;;;;;;;;;4.50;99.90;;;;;;5136470;27;19907;-77
2022/01/04 14:16:06;;;;;;;;;;;4.50;99.90;;;;;;5153951;27;20014;-76
2022/01/04 14:18:32;;;;;;;;;;;4.50;99.90;;;;;;5152271;27;20367;-77
2022/01/04 14:20:57;;;;;;;;;;;4.50;99.90;;;;;;5153970;27;19907;-77
2022/01/04 14:23:36;;;;;;;;;;;4.40;99.90;;;;;;5154494;27;20021;-77
2022/01/04 14:26:05;;;;;;;;;;;4.40;99.90;;;;;;5153905;27;19907;-77
2022/01/04 14:28:31;;;;;;;;;;;4.50;99.90;;;;;;5146215;27;19911;-77
2022/01/04 14:30:56;;;;;;;;;;;4.40;99.90;;;;;;5139906;27;19911;-77
2022/01/04 14:33:22;;;;;;;;;;;4.40;99.90;;;;;;5134840;27;19918;-76
2022/01/04 14:35:48;;;;;;;;;;;4.40;99.90;;;;;;5134184;27;19950;-75
2022/01/04 14:38:13;;;;;;;;;;;4.40;99.90;;;;;;5114826;27;19916;-76
2022/01/04 14:40:39;;;;;;;;;;;4.40;99.90;;;;;;5133947;27;20381;-76
2022/01/04 14:43:04;;;;;;;;;;;4.40;99.90;;;;;;5133517;27;19914;-76
2022/01/04 14:45:30;;;;;;;;;;;4.40;99.90;;;;;;5142599;27;19960;-76